Time;durP1;ratioP1;P1;durP2;ratioP2;P2;SDS_P1;SDS_P2;PMS_P1;PMS_P2;Temp;Humidity;BMP_temperature;BMP_pressure;BME280_temperature;BME280_humidity;BME280_pressure;Samples;Min_cycle;Max_cycle;Signal;HPM_P1;HPM_P2
2023/05/12 00:01:56;;;;;;;5.43;4.90;;;13.30;99.90;;;;;;4949124;28;20207;-68
2023/05/12 00:04:21;;;;;;;5.27;4.77;;;13.30;99.90;;;;;;4952083;28;20212;-68
2023/05/12 00:06:47;;;;;;;5.90;5.27;;;13.60;99.90;;;;;;4944508;28;20189;-68
2023/05/12 00:09:12;;;;;;;5.50;5.10;;;13.60;99.90;;;;;;4934301;29;20193;-68
2023/05/12 00:11:38;;;;;;;5.33;4.93;;;13.50;99.90;;;;;;4950681;28;20205;-68
2023/05/12 00:14:05;;;;;;;6.43;5.60;;;12.50;99.90;;;;;;4945839;28;20196;-68
2023/05/12 00:16:31;;;;;;;5.60;5.10;;;13.50;99.90;;;;;;4946647;29;20682;-68
2023/05/12 00:18:56;;;;;;;5.27;4.80;;;13.30;99.90;;;;;;4949707;29;20188;-69
2023/05/12 00:21:22;;;;;;;5.17;4.67;;;13.40;99.90;;;;;;4947668;28;20725;-69
2023/05/12 00:23:48;;;;;;;6.07;5.60;;;13.50;99.90;;;;;;4949809;29;20739;-68
2023/05/12 00:26:13;;;;;;;5.97;5.47;;;13.50;99.90;;;;;;4931648;29;20655;-69
2023/05/12 00:28:39;;;;;;;5.77;5.23;;;13.30;99.90;;;;;;4947699;28;20181;-68
2023/05/12 00:31:04;;;;;;;5.90;5.40;;;13.40;99.90;;;;;;4949034;29;20228;-68
2023/05/12 00:33:30;;;;;;;6.20;5.60;;;13.30;99.90;;;;;;4949826;29;20285;-69
2023/05/12 00:35:56;;;;;;;5.93;5.53;;;13.40;99.90;;;;;;4948113;28;20185;-69
2023/05/12 00:38:22;;;;;;;8.43;6.40;;;13.20;99.90;;;;;;4932650;29;20320;-68
2023/05/12 00:40:47;;;;;;;5.83;5.37;;;13.10;99.90;;;;;;4948310;28;20204;-69
2023/05/12 00:43:13;;;;;;;6.90;6.07;;;13.20;99.90;;;;;;4932602;29;20670;-69
2023/05/12 00:45:38;;;;;;;8.03;5.50;;;13.30;99.90;;;;;;4944990;28;20193;-70
2023/05/12 00:48:05;;;;;;;7.83;5.97;;;13.40;99.90;;;;;;4929170;29;20207;-69
2023/05/12 00:50:31;;;;;;;5.72;5.10;;;13.50;99.90;;;;;;4945478;28;20212;-69
2023/05/12 00:52:59;;;;;;;7.00;6.40;;;13.60;99.90;;;;;;4949142;28;20185;-69
2023/05/12 00:55:26;;;;;;;6.78;6.18;;;13.20;99.90;;;;;;4949555;28;20519;-69
2023/05/12 00:57:52;;;;;;;6.18;5.68;;;13.70;99.90;;;;;;4947432;29;20189;-69
2023/05/12 01:00:18;;;;;;;8.13;7.22;;;13.40;99.90;;;;;;4947008;28;20227;-69
2023/05/12 01:02:44;;;;;;;7.40;6.80;;;13.40;99.90;;;;;;4947295;29;20644;-69
2023/05/12 01:05:10;;;;;;;7.95;7.22;;;13.40;99.90;;;;;;4948321;29;20311;-70
2023/05/12 01:07:38;;;;;;;7.47;6.78;;;13.20;99.90;;;;;;4944843;28;20197;-69
2023/05/12 01:10:04;;;;;;;7.40;6.80;;;13.40;99.90;;;;;;4951055;28;20212;-69
2023/05/12 01:12:31;;;;;;;8.23;7.32;;;13.60;99.90;;;;;;4948352;29;20904;-69
2023/05/12 01:14:57;;;;;;;7.93;7.15;;;13.60;99.90;;;;;;4948751;29;20196;-69
2023/05/12 01:17:33;;;;;;;8.60;7.03;;;13.40;99.90;;;;;;4943367;28;20320;-69
2023/05/12 01:20:05;;;;;;;8.95;8.13;;;13.30;99.90;;;;;;4946343;28;20204;-69
2023/05/12 01:22:32;;;;;;;9.20;7.75;;;13.30;99.90;;;;;;4944910;28;20231;-68
2023/05/12 01:25:01;;;;;;;8.85;8.05;;;13.10;99.90;;;;;;4932295;28;20212;-70
2023/05/12 01:27:28;;;;;;;9.18;8.30;;;13.30;99.90;;;;;;4947831;28;20792;-69
2023/05/12 01:29:57;;;;;;;8.50;7.70;;;13.00;99.90;;;;;;4949367;28;20216;-69
2023/05/12 01:32:23;;;;;;;8.98;7.95;;;13.20;99.90;;;;;;4947351;28;20192;-70
2023/05/12 01:34:49;;;;;;;8.93;8.13;;;13.30;99.90;;;;;;4947815;28;20699;-70
2023/05/12 01:37:15;;;;;;;8.35;7.55;;;13.20;99.90;;;;;;4926332;29;20189;-70
2023/05/12 01:39:40;;;;;;;8.53;7.73;;;13.20;99.90;;;;;;4932401;29;20199;-69
2023/05/12 01:42:06;;;;;;;9.50;8.47;;;13.50;99.90;;;;;;4945231;28;20198;-69
2023/05/12 01:44:32;;;;;;;9.00;7.93;;;13.20;99.90;;;;;;4948516;28;20307;-69
2023/05/12 01:46:57;;;;;;;8.87;8.07;;;13.20;99.90;;;;;;4944797;28;20459;-69
2023/05/12 01:49:23;;;;;;;10.07;8.80;;;13.10;99.90;;;;;;4948591;29;20188;-70
2023/05/12 01:51:49;;;;;;;8.70;7.93;;;12.90;99.90;;;;;;4941881;28;20197;-70
2023/05/12 01:54:14;;;;;;;9.07;8.27;;;13.20;99.90;;;;;;4931766;29;20367;-69
2023/05/12 01:56:40;;;;;;;8.60;7.73;;;13.00;99.90;;;;;;4944254;29;20189;-70
2023/05/12 01:59:06;;;;;;;9.18;8.27;;;13.00;99.90;;;;;;4948148;28;20569;-69
2023/05/12 02:01:32;;;;;;;8.67;7.77;;;13.20;99.90;;;;;;4946978;29;20299;-69
2023/05/12 02:03:58;;;;;;;9.67;8.00;;;13.40;99.90;;;;;;4944718;28;20555;-69
2023/05/12 02:06:25;;;;;;;8.90;8.10;;;13.50;99.90;;;;;;4944103;29;20472;-68
2023/05/12 02:08:51;;;;;;;8.57;7.88;;;13.10;99.90;;;;;;4949796;28;20570;-69
2023/05/12 02:11:17;;;;;;;9.10;8.20;;;13.00;99.90;;;;;;4946733;28;20209;-69
2023/05/12 02:13:46;;;;;;;9.63;8.27;;;13.10;99.90;;;;;;4947328;29;20556;-69
2023/05/12 02:16:12;;;;;;;8.88;8.07;;;13.20;99.90;;;;;;4941628;28;20276;-68
2023/05/12 02:18:37;;;;;;;9.60;8.70;;;13.00;99.90;;;;;;4948524;28;20276;-69
2023/05/12 02:21:03;;;;;;;8.67;7.90;;;13.10;99.90;;;;;;4941932;28;20563;-68
2023/05/12 02:23:28;;;;;;;9.67;8.77;;;13.20;99.90;;;;;;4948589;28;20181;-68
2023/05/12 02:25:54;;;;;;;9.20;8.40;;;13.20;99.90;;;;;;4945439;29;20177;-68
2023/05/12 02:28:19;;;;;;;10.17;9.17;;;13.10;99.90;;;;;;4945738;28;20400;-68
2023/05/12 02:30:49;;;;;;;10.73;9.37;;;12.90;99.90;;;;;;4946296;29;20243;-68
2023/05/12 02:33:21;;;;;;;11.38;9.20;;;12.70;99.90;;;;;;4946205;28;20189;-68
2023/05/12 02:35:48;;;;;;;10.40;9.40;;;13.00;99.90;;;;;;4942294;28;20182;-67
2023/05/12 02:38:13;;;;;;;10.13;9.23;;;13.20;99.90;;;;;;4928839;29;20196;-67
2023/05/12 02:40:39;;;;;;;10.00;9.00;;;12.80;99.90;;;;;;4946020;28;20220;-67
2023/05/12 02:43:05;;;;;;;10.50;9.50;;;12.90;99.90;;;;;;4931005;29;20205;-69
2023/05/12 02:45:32;;;;;;;10.13;9.13;;;12.90;99.90;;;;;;4948399;29;20228;-69
2023/05/12 02:47:58;;;;;;;10.90;9.80;;;13.00;99.90;;;;;;4947146;29;20181;-69
2023/05/12 02:50:23;;;;;;;11.07;10.07;;;13.20;99.90;;;;;;4947842;29;20209;-68
2023/05/12 02:52:49;;;;;;;11.40;10.30;;;12.90;99.90;;;;;;4931449;29;20177;-69
2023/05/12 02:55:15;;;;;;;9.63;8.77;;;12.70;99.90;;;;;;4944849;29;20633;-69
2023/05/12 02:57:42;;;;;;;12.10;10.90;;;12.90;99.90;;;;;;4948254;28;20200;-69
2023/05/12 03:00:08;;;;;;;12.25;10.20;;;13.00;99.90;;;;;;4946875;29;20212;-69
2023/05/12 03:02:37;;;;;;;10.60;9.50;;;13.00;99.90;;;;;;4947811;28;20571;-69
2023/05/12 03:05:04;;;;;;;10.15;9.25;;;12.80;99.90;;;;;;4950746;29;20475;-69
2023/05/12 03:07:30;;;;;;;10.00;9.00;;;12.80;99.90;;;;;;4943930;28;20203;-69
2023/05/12 03:09:56;;;;;;;10.40;9.43;;;12.90;99.90;;;;;;4951049;29;20244;-69
2023/05/12 03:12:22;;;;;;;10.85;9.75;;;13.00;99.90;;;;;;4950794;29;20184;-69
2023/05/12 03:14:47;;;;;;;13.10;10.23;;;12.80;99.90;;;;;;4949236;29;20730;-69
2023/05/12 03:17:13;;;;;;;10.60;9.60;;;12.80;99.90;;;;;;4933553;29;20181;-69
2023/05/12 03:19:38;;;;;;;11.10;10.10;;;12.80;99.90;;;;;;4951280;28;20188;-69
2023/05/12 03:22:06;;;;;;;11.23;10.13;;;12.70;99.90;;;;;;4945755;28;20193;-70
2023/05/12 03:24:32;;;;;;;11.95;10.75;;;12.90;99.90;;;;;;4930442;29;20260;-70
2023/05/12 03:26:57;;;;;;;11.83;10.60;;;12.70;99.90;;;;;;4930338;29;20204;-69
2023/05/12 03:29:23;;;;;;;11.20;9.80;;;12.80;99.90;;;;;;4947676;29;20485;-70
2023/05/12 03:31:49;;;;;;;11.60;10.23;;;12.80;99.90;;;;;;4947775;28;20307;-69
2023/05/12 03:34:14;;;;;;;12.57;11.23;;;12.90;99.90;;;;;;4949593;29;20181;-69
2023/05/12 03:36:40;;;;;;;11.40;10.30;;;12.60;99.90;;;;;;4947016;28;20664;-69
2023/05/12 03:39:08;;;;;;;10.60;9.45;;;13.00;99.90;;;;;;4949743;28;20208;-70
2023/05/12 03:41:34;;;;;;;10.82;9.73;;;12.90;99.90;;;;;;4950453;29;20714;-68
2023/05/12 03:44:00;;;;;;;11.00;9.90;;;13.10;99.90;;;;;;4943742;28;20216;-68
2023/05/12 03:46:25;;;;;;;10.80;9.73;;;12.80;99.90;;;;;;4950622;29;20189;-68
2023/05/12 03:48:51;;;;;;;12.30;11.13;;;12.80;99.90;;;;;;4951219;29;20185;-68
2023/05/12 03:51:17;;;;;;;12.95;11.70;;;12.80;99.90;;;;;;4947452;28;20399;-68
2023/05/12 03:53:45;;;;;;;12.57;11.10;;;12.90;99.90;;;;;;4949940;28;20268;-68
2023/05/12 03:56:10;;;;;;;11.80;10.70;;;12.80;99.90;;;;;;4945499;28;20299;-68
2023/05/12 03:58:36;;;;;;;11.77;10.60;;;13.00;99.90;;;;;;4947519;29;20264;-68
2023/05/12 04:01:02;;;;;;;12.60;11.40;;;13.00;99.90;;;;;;4946019;28;20627;-68
2023/05/12 04:03:28;;;;;;;12.30;11.10;;;12.70;99.90;;;;;;4930516;28;20752;-68
2023/05/12 04:06:00;;;;;;;13.45;12.00;;;13.00;99.90;;;;;;4947355;28;20196;-68
2023/05/12 04:08:27;;;;;;;12.65;11.15;;;12.90;99.90;;;;;;4945495;28;20656;-68
2023/05/12 04:11:00;;;;;;;12.65;11.38;;;13.00;99.90;;;;;;4929501;29;20210;-68
2023/05/12 04:13:27;;;;;;;12.35;11.00;;;12.90;99.90;;;;;;4945294;28;20248;-70
2023/05/12 04:15:57;;;;;;;12.63;11.43;;;13.20;99.90;;;;;;4927423;29;20185;-69
2023/05/12 04:18:24;;;;;;;12.68;11.38;;;12.90;99.90;;;;;;4948059;28;20576;-69
2023/05/12 04:20:49;;;;;;;12.77;11.43;;;12.70;99.90;;;;;;4946738;28;20287;-69
2023/05/12 04:23:15;;;;;;;14.60;12.70;;;12.60;99.90;;;;;;4949235;28;20280;-69
2023/05/12 04:25:41;;;;;;;12.47;11.17;;;12.60;99.90;;;;;;4951941;28;20646;-70
2023/05/12 04:28:08;;;;;;;11.70;10.50;;;13.00;99.90;;;;;;4947615;28;20450;-70
2023/05/12 04:30:33;;;;;;;11.65;10.45;;;12.80;99.90;;;;;;4948576;28;20204;-68
2023/05/12 04:33:00;;;;;;;13.73;10.47;;;12.90;99.90;;;;;;4948181;28;20212;-70
2023/05/12 04:35:26;;;;;;;13.43;12.13;;;12.90;99.90;;;;;;4949331;29;20237;-70
2023/05/12 04:37:52;;;;;;;10.25;9.25;;;13.00;99.90;;;;;;4946604;28;20541;-68
2023/05/12 04:40:17;;;;;;;9.97;8.97;;;13.00;99.90;;;;;;4950203;29;20217;-68
2023/05/12 04:42:43;;;;;;;13.33;10.67;;;13.00;99.90;;;;;;4950140;29;20201;-68
2023/05/12 04:45:09;;;;;;;11.73;10.50;;;12.60;99.90;;;;;;4946651;28;20208;-73
2023/05/12 04:47:35;;;;;;;11.38;10.18;;;13.00;99.90;;;;;;4952517;28;20451;-68
2023/05/12 04:50:01;;;;;;;13.13;11.93;;;13.00;99.90;;;;;;4950598;28;20212;-61
2023/05/12 04:52:27;;;;;;;12.52;11.30;;;12.90;99.90;;;;;;4948232;28;20184;-61
2023/05/12 04:54:52;;;;;;;12.57;11.27;;;12.90;99.90;;;;;;4948749;29;20196;-64
2023/05/12 04:57:18;;;;;;;12.47;11.23;;;13.10;99.90;;;;;;4947736;29;20200;-70
2023/05/12 04:59:43;;;;;;;12.40;11.20;;;13.10;99.90;;;;;;4948717;28;20192;-71
2023/05/12 05:02:10;;;;;;;11.93;10.80;;;13.00;99.90;;;;;;4947493;29;20187;-70
2023/05/12 05:04:36;;;;;;;11.57;10.27;;;13.20;99.90;;;;;;4944125;29;20219;-71
2023/05/12 05:07:02;;;;;;;12.20;11.00;;;13.20;99.90;;;;;;4946219;28;20187;-70
2023/05/12 05:09:27;;;;;;;11.77;10.57;;;13.20;99.90;;;;;;4949246;29;20860;-70
2023/05/12 05:11:53;;;;;;;12.33;11.10;;;13.30;99.90;;;;;;4948131;28;20197;-71
2023/05/12 05:14:18;;;;;;;10.60;9.60;;;13.20;99.90;;;;;;4946165;29;20553;-71
2023/05/12 05:16:45;;;;;;;10.80;9.60;;;13.30;99.90;;;;;;4947167;28;20193;-71
2023/05/12 05:19:12;;;;;;;11.23;10.32;;;13.30;99.90;;;;;;4930488;29;20192;-71
2023/05/12 05:21:37;;;;;;;12.20;10.38;;;13.50;99.90;;;;;;4945329;28;20196;-73
2023/05/12 05:24:03;;;;;;;10.80;9.77;;;13.40;99.90;;;;;;4949765;28;20204;-70
2023/05/12 05:26:29;;;;;;;11.80;10.70;;;13.10;99.90;;;;;;4931594;29;20177;-68
2023/05/12 05:28:54;;;;;;;11.77;10.57;;;13.20;99.90;;;;;;4947693;29;20204;-68
2023/05/12 05:31:21;;;;;;;10.60;9.50;;;13.40;99.90;;;;;;4941709;28;20232;-68
2023/05/12 05:33:47;;;;;;;11.10;10.00;;;13.30;99.90;;;;;;4932301;29;20283;-68
2023/05/12 05:36:12;;;;;;;13.35;11.25;;;13.40;99.90;;;;;;4941279;29;20231;-68
2023/05/12 05:38:38;;;;;;;11.27;10.13;;;13.50;99.90;;;;;;4949189;29;20551;-70
2023/05/12 05:41:04;;;;;;;13.63;12.33;;;13.10;99.90;;;;;;4945480;28;20204;-68
2023/05/12 05:43:30;;;;;;;11.90;10.73;;;13.40;99.90;;;;;;4945394;29;20203;-68
2023/05/12 05:45:58;;;;;;;11.00;9.90;;;13.30;99.90;;;;;;4947369;29;20189;-68
2023/05/12 05:48:24;;;;;;;12.23;11.02;;;13.40;99.90;;;;;;4945637;28;20184;-68
2023/05/12 05:50:51;;;;;;;11.27;10.10;;;13.30;99.90;;;;;;4944182;28;20255;-68
2023/05/12 05:53:18;;;;;;;10.50;9.40;;;13.60;99.90;;;;;;4944417;29;20449;-68
2023/05/12 05:55:44;;;;;;;11.05;9.95;;;13.40;99.90;;;;;;4945890;29;20196;-67
2023/05/12 05:58:10;;;;;;;11.25;10.05;;;13.30;99.90;;;;;;4947399;28;20799;-68
2023/05/12 06:00:35;;;;;;;10.57;9.47;;;14.00;99.90;;;;;;4946761;28;20291;-68
2023/05/12 06:03:01;;;;;;;11.77;9.87;;;14.30;99.90;;;;;;4947022;29;20560;-68
2023/05/12 06:05:27;;;;;;;11.10;9.97;;;13.50;99.90;;;;;;4946558;28;20472;-68
2023/05/12 06:07:52;;;;;;;10.73;9.73;;;13.90;99.90;;;;;;4945033;29;20212;-69
2023/05/12 06:10:18;;;;;;;10.37;9.27;;;13.50;99.90;;;;;;4943290;28;20582;-66
2023/05/12 06:12:44;;;;;;;10.60;8.87;;;13.50;99.90;;;;;;4943494;28;20662;-70
2023/05/12 06:15:10;;;;;;;9.63;8.60;;;13.70;99.90;;;;;;4948156;28;20481;-67
2023/05/12 06:17:36;;;;;;;10.13;9.23;;;13.60;99.90;;;;;;4928529;28;20228;-59
2023/05/12 06:20:04;;;;;;;11.53;10.43;;;13.70;99.90;;;;;;4944942;28;20488;-64
2023/05/12 06:22:30;;;;;;;10.07;9.07;;;13.60;99.90;;;;;;4946386;28;20453;-63
2023/05/12 06:24:55;;;;;;;10.90;9.80;;;13.20;99.90;;;;;;4943471;28;20220;-65
2023/05/12 06:27:21;;;;;;;10.90;9.70;;;13.80;99.90;;;;;;4937722;28;20880;-68
2023/05/12 06:29:46;;;;;;;11.10;10.00;;;13.90;99.90;;;;;;4948995;28;20725;-68
2023/05/12 06:32:12;;;;;;;11.80;10.63;;;13.70;99.90;;;;;;4945030;28;20734;-66
2023/05/12 06:34:38;;;;;;;9.77;8.83;;;13.80;99.90;;;;;;4947529;29;20276;-66
2023/05/12 06:37:03;;;;;;;9.80;8.80;;;13.90;99.90;;;;;;4943768;28;20557;-67
2023/05/12 06:39:29;;;;;;;10.30;9.33;;;13.80;99.90;;;;;;4948466;28;20788;-66
2023/05/12 06:41:54;;;;;;;10.20;9.20;;;14.10;99.90;;;;;;4947019;28;20244;-67
2023/05/12 06:44:20;;;;;;;9.80;8.80;;;14.20;99.90;;;;;;4948347;28;20212;-65
2023/05/12 06:46:46;;;;;;;10.43;9.43;;;14.10;99.90;;;;;;4934664;29;20209;-67
2023/05/12 06:49:11;;;;;;;10.50;8.90;;;14.50;99.90;;;;;;4925565;28;20267;-68
2023/05/12 06:51:37;;;;;;;10.07;9.07;;;14.10;99.90;;;;;;4950071;28;20200;-68
2023/05/12 06:54:02;;;;;;;9.30;8.40;;;14.60;99.90;;;;;;4951681;28;20206;-67
2023/05/12 06:56:28;;;;;;;9.43;8.50;;;14.10;99.90;;;;;;4952095;28;20196;-64
2023/05/12 06:58:59;;;;;;;10.07;7.53;;;14.60;99.90;;;;;;4948306;29;20189;-67
2023/05/12 07:01:26;;;;;;;8.55;7.65;;;14.60;99.90;;;;;;4945943;28;20472;-66
2023/05/12 07:03:51;;;;;;;9.35;8.25;;;14.60;99.90;;;;;;4948694;29;20211;-69
2023/05/12 07:06:17;;;;;;;8.30;7.50;;;14.60;99.90;;;;;;4948806;28;20570;-66
2023/05/12 07:08:42;;;;;;;7.80;7.03;;;14.60;99.90;;;;;;4946539;28;20201;-68
2023/05/12 07:11:08;;;;;;;8.80;7.90;;;15.80;99.90;;;;;;4946428;28;20209;-66
2023/05/12 07:13:33;;;;;;;7.17;6.47;;;15.00;99.90;;;;;;4945767;28;20661;-67
2023/05/12 07:15:59;;;;;;;7.20;6.53;;;15.00;99.90;;;;;;4946937;28;20209;-66
2023/05/12 07:18:25;;;;;;;8.20;7.40;;;15.10;99.90;;;;;;4945483;28;20224;-68
2023/05/12 07:20:50;;;;;;;8.10;7.40;;;15.10;99.90;;;;;;4950436;29;20283;-65
2023/05/12 07:23:16;;;;;;;7.67;6.97;;;15.30;99.90;;;;;;4949029;28;20201;-65
2023/05/12 07:25:42;;;;;;;9.13;8.33;;;15.30;99.90;;;;;;4948228;28;20217;-67
2023/05/12 07:28:07;;;;;;;8.60;7.80;;;15.50;99.90;;;;;;4945862;29;20184;-65
2023/05/12 07:30:33;;;;;;;9.30;8.40;;;15.50;99.90;;;;;;4947895;28;20213;-65
2023/05/12 07:33:00;;;;;;;8.77;7.30;;;15.80;99.90;;;;;;4951645;28;20197;-67
2023/05/12 07:35:26;;;;;;;8.88;8.07;;;15.90;99.90;;;;;;4934687;29;20475;-69
2023/05/12 07:37:52;;;;;;;7.70;6.90;;;16.00;99.90;;;;;;4947324;28;20641;-69
2023/05/12 07:40:18;;;;;;;8.20;7.50;;;16.20;99.90;;;;;;4947825;28;20201;-66
2023/05/12 07:42:43;;;;;;;9.23;7.37;;;15.70;99.90;;;;;;4949219;29;20197;-66
2023/05/12 07:45:09;;;;;;;8.20;7.50;;;15.90;99.90;;;;;;4945638;28;20227;-68
2023/05/12 07:47:35;;;;;;;7.50;6.80;;;15.90;99.90;;;;;;4947057;28;20207;-67
2023/05/12 07:50:01;;;;;;;6.80;6.20;;;15.70;99.90;;;;;;4932910;29;20476;-67
2023/05/12 07:52:26;;;;;;;8.97;8.07;;;16.10;99.90;;;;;;4951723;28;20287;-67
2023/05/12 07:54:52;;;;;;;7.90;7.10;;;15.90;99.90;;;;;;4949962;28;20272;-66
2023/05/12 07:57:17;;;;;;;7.90;7.20;;;15.90;99.90;;;;;;4948962;29;20678;-66
2023/05/12 07:59:43;;;;;;;8.23;7.40;;;15.90;99.90;;;;;;4946342;28;20203;-68
2023/05/12 08:02:08;;;;;;;8.70;6.60;;;15.90;99.90;;;;;;4946846;28;20185;-68
2023/05/12 08:04:34;;;;;;;6.50;6.00;;;16.00;99.90;;;;;;4948099;28;20240;-67
2023/05/12 08:07:00;;;;;;;6.77;6.07;;;16.70;99.90;;;;;;4943219;28;20184;-68
2023/05/12 08:09:25;;;;;;;6.67;6.00;;;16.40;99.90;;;;;;4949975;28;21278;-68
2023/05/12 08:11:51;;;;;;;6.70;6.10;;;16.20;99.90;;;;;;4947375;28;20259;-71
2023/05/12 08:14:16;;;;;;;6.10;5.30;;;15.70;99.90;;;;;;4944363;28;20217;-68
2023/05/12 08:16:44;;;;;;;5.40;4.90;;;16.00;99.90;;;;;;4948751;28;20220;-70
2023/05/12 08:19:11;;;;;;;6.15;5.65;;;16.20;99.90;;;;;;4946843;29;20185;-72
2023/05/12 08:21:36;;;;;;;6.15;5.55;;;16.00;99.90;;;;;;4941422;28;20213;-70
2023/05/12 08:24:03;;;;;;;5.60;5.10;;;16.30;99.90;;;;;;4948169;29;20211;-69
2023/05/12 08:26:29;;;;;;;6.07;5.47;;;16.90;99.90;;;;;;4950333;28;20181;-69
2023/05/12 08:28:55;;;;;;;6.00;5.50;;;16.50;99.90;;;;;;4947991;28;20297;-69
2023/05/12 08:31:21;;;;;;;6.97;4.77;;;16.60;99.90;;;;;;4933334;29;20219;-67
2023/05/12 08:33:46;;;;;;;4.33;4.03;;;16.60;99.90;;;;;;4949459;29;20452;-68
2023/05/12 08:36:12;;;;;;;4.70;4.30;;;16.70;99.90;;;;;;4943404;28;22335;-67
2023/05/12 08:38:37;;;;;;;3.23;2.87;;;16.70;99.90;;;;;;4931593;29;20190;-68
2023/05/12 08:41:12;;;;;;;4.00;3.60;;;16.90;99.90;;;;;;4949581;28;20217;-66
2023/05/12 08:43:43;;;;;;;3.97;3.67;;;16.90;99.90;;;;;;4944904;28;20197;-68
2023/05/12 08:46:11;;;;;;;4.85;4.40;;;16.80;99.90;;;;;;4944338;28;20239;-74
2023/05/12 08:48:39;;;;;;;5.55;5.05;;;16.90;99.90;;;;;;4946772;28;20259;-75
2023/05/12 08:51:10;;;;;;;5.00;4.60;;;16.60;99.90;;;;;;4924061;28;20209;-75
2023/05/12 08:53:38;;;;;;;7.43;5.10;;;16.80;99.90;;;;;;4930935;29;20185;-76
2023/05/12 08:56:09;;;;;;;5.95;4.60;;;16.20;99.90;;;;;;4952154;28;20207;-76
2023/05/12 08:58:36;;;;;;;4.70;4.30;;;16.00;99.90;;;;;;4949827;28;20185;-66
2023/05/12 09:01:05;;;;;;;4.20;3.90;;;16.30;99.90;;;;;;4946439;28;20205;-66
2023/05/12 09:03:30;;;;;;;5.78;4.07;;;16.50;99.90;;;;;;4950896;28;20185;-70
2023/05/12 09:05:57;;;;;;;4.17;3.83;;;16.80;99.90;;;;;;4950465;28;21053;-71
2023/05/12 09:08:25;;;;;;;4.40;4.00;;;17.40;99.90;;;;;;4931284;28;20441;-71
2023/05/12 09:10:53;;;;;;;3.00;2.70;;;17.40;99.90;;;;;;4946496;28;20709;-73
2023/05/12 09:13:27;;;;;;;4.47;4.05;;;18.10;99.50;;;;;;4946278;28;20191;-73
2023/05/12 09:15:55;;;;;;;4.68;3.80;;;18.10;99.20;;;;;;4938781;29;20229;-73
2023/05/12 09:18:21;;;;;;;3.88;3.55;;;17.00;98.70;;;;;;4952602;29;20181;-73
2023/05/12 09:20:47;;;;;;;4.15;3.85;;;17.90;98.90;;;;;;4952713;29;20252;-73
2023/05/12 09:23:21;;;;;;;4.10;3.80;;;18.10;99.10;;;;;;4936352;29;20197;-73
2023/05/12 09:25:57;;;;;;;4.88;4.30;;;17.70;99.50;;;;;;4955836;29;20518;-73
2023/05/12 09:28:22;;;;;;;4.88;4.20;;;17.50;98.90;;;;;;4951521;29;20661;-73
2023/05/12 09:30:48;;;;;;;4.00;3.70;;;17.70;99.60;;;;;;4952478;28;20205;-73
2023/05/12 09:33:14;;;;;;;3.53;3.23;;;17.40;99.40;;;;;;4953693;29;20199;-73
2023/05/12 09:35:42;;;;;;;5.10;4.60;;;17.50;99.30;;;;;;4953444;29;20220;-73
2023/05/12 09:38:17;;;;;;;4.90;4.50;;;17.60;99.90;;;;;;4949035;28;20732;-73
2023/05/12 09:40:43;;;;;;;3.58;3.28;;;17.90;99.40;;;;;;4949390;29;20207;-73
2023/05/12 09:43:09;;;;;;;3.90;3.60;;;18.20;98.80;;;;;;4933070;29;20296;-73
2023/05/12 09:45:37;;;;;;;5.43;5.03;;;16.60;97.30;;;;;;4942990;28;20204;-73
2023/05/12 09:48:11;;;;;;;5.82;4.60;;;17.90;98.80;;;;;;4931119;29;20201;-73
2023/05/12 09:50:45;;;;;;;4.70;4.32;;;17.60;99.40;;;;;;4946029;28;20287;-73
2023/05/12 09:53:11;;;;;;;4.57;4.28;;;17.60;99.30;;;;;;4935937;28;20662;-73
2023/05/12 09:55:37;;;;;;;4.07;3.77;;;17.50;99.20;;;;;;4946891;28;20199;-73
2023/05/12 09:58:09;;;;;;;4.25;3.95;;;17.90;98.40;;;;;;4941332;28;20827;-69
2023/05/12 10:00:39;;;;;;;4.10;3.80;;;18.20;98.20;;;;;;4946439;28;20201;-68
2023/05/12 10:03:16;;;;;;;4.40;4.10;;;18.40;98.20;;;;;;4948482;29;20223;-70
2023/05/12 10:06:03;;;;;;;4.68;4.28;;;18.20;97.60;;;;;;4946181;28;20749;-67
2023/05/12 10:08:40;;;;;;;4.68;4.13;;;18.20;97.80;;;;;;4947471;28;20208;-66
2023/05/12 10:11:07;;;;;;;4.40;4.10;;;18.00;97.80;;;;;;4945721;28;20837;-67
2023/05/12 10:13:33;;;;;;;4.18;3.88;;;18.10;98.30;;;;;;4949269;28;20228;-68
2023/05/12 10:15:59;;;;;;;3.60;3.40;;;17.80;98.10;;;;;;4949762;28;20220;-68
2023/05/12 10:18:25;;;;;;;5.20;4.18;;;17.70;98.30;;;;;;4952146;28;20200;-67
2023/05/12 10:20:52;;;;;;;5.20;4.20;;;17.70;98.80;;;;;;4952317;28;20693;-68
2023/05/12 10:23:19;;;;;;;4.38;4.07;;;17.70;98.70;;;;;;4946447;28;20219;-67
2023/05/12 10:25:44;;;;;;;4.35;4.05;;;17.70;98.80;;;;;;4953524;28;20219;-67
2023/05/12 10:28:11;;;;;;;5.40;5.00;;;17.30;99.10;;;;;;4932463;29;20208;-68
2023/05/12 10:30:38;;;;;;;3.90;3.60;;;17.80;99.70;;;;;;4950445;28;20223;-68
2023/05/12 10:33:07;;;;;;;3.92;3.63;;;18.00;98.70;;;;;;4950719;28;20302;-68
2023/05/12 10:35:34;;;;;;;3.72;3.42;;;18.20;98.50;;;;;;4948837;28;20192;-68
2023/05/12 10:38:05;;;;;;;3.47;3.17;;;18.90;97.00;;;;;;4950111;28;20181;-68
2023/05/12 10:40:31;;;;;;;3.95;3.65;;;19.40;96.20;;;;;;4931787;29;20251;-70
2023/05/12 10:42:59;;;;;;;4.47;4.07;;;19.40;96.20;;;;;;4949549;28;20493;-69
2023/05/12 10:45:25;;;;;;;3.70;3.50;;;19.50;96.10;;;;;;4948042;28;20689;-70
2023/05/12 10:47:51;;;;;;;3.70;3.40;;;19.60;95.60;;;;;;4944405;28;20955;-69
2023/05/12 10:50:26;;;;;;;3.57;3.27;;;19.70;96.00;;;;;;4949753;28;20331;-69
2023/05/12 10:52:53;;;;;;;3.75;3.45;;;19.50;95.60;;;;;;4937700;28;20201;-69
2023/05/12 10:55:30;;;;;;;3.80;3.50;;;19.20;95.80;;;;;;4947496;29;20211;-69
2023/05/12 10:58:08;;;;;;;4.20;3.83;;;18.70;97.10;;;;;;4941213;29;20192;-66
2023/05/12 11:00:48;;;;;;;4.22;3.92;;;18.30;98.10;;;;;;4950114;28;20212;-68
2023/05/12 11:03:18;;;;;;;4.75;4.35;;;17.90;99.40;;;;;;4950790;29;20188;-67
2023/05/12 11:05:45;;;;;;;11.18;7.60;;;17.80;99.90;;;;;;4950481;28;20224;-65
2023/05/12 11:08:11;;;;;;;4.80;4.30;;;17.80;99.90;;;;;;4949635;28;20228;-67
2023/05/12 11:10:40;;;;;;;4.80;4.40;;;17.30;99.90;;;;;;4948973;28;20208;-66
2023/05/12 11:13:06;;;;;;;13.63;9.25;;;17.30;99.90;;;;;;4945395;29;20216;-68
2023/05/12 11:15:31;;;;;;;6.70;5.80;;;17.10;99.90;;;;;;4947943;28;20486;-67
2023/05/12 11:18:01;;;;;;;4.97;4.47;;;17.40;99.90;;;;;;4946854;28;20220;-68
2023/05/12 11:20:26;;;;;;;3.60;3.30;;;17.20;99.90;;;;;;4946556;28;20281;-70
2023/05/12 11:22:53;;;;;;;4.03;3.60;;;17.20;99.90;;;;;;4948664;28;20189;-68
2023/05/12 11:25:18;;;;;;;4.35;3.47;;;17.00;99.90;;;;;;4943885;28;20570;-67
2023/05/12 11:27:48;;;;;;;4.17;3.53;;;17.00;99.90;;;;;;4945922;28;20218;-65
2023/05/12 11:30:14;;;;;;;4.15;3.75;;;17.00;99.90;;;;;;4948572;28;20236;-65
2023/05/12 11:32:40;;;;;;;3.22;2.92;;;16.80;99.90;;;;;;4941771;28;20281;-72
2023/05/12 11:35:08;;;;;;;4.07;3.40;;;17.20;99.90;;;;;;4943853;28;20194;-72
2023/05/12 11:37:38;;;;;;;4.40;4.00;;;16.60;99.90;;;;;;4927469;28;20662;-70
2023/05/12 11:40:18;;;;;;;2.85;2.65;;;16.60;99.90;;;;;;4947700;28;20209;-73
2023/05/12 11:42:47;;;;;;;4.10;3.80;;;16.30;99.90;;;;;;4945997;28;20279;-72
2023/05/12 11:45:24;;;;;;;4.50;4.10;;;16.20;99.90;;;;;;4946332;28;20274;-70
2023/05/12 11:47:51;;;;;;;3.75;3.45;;;16.10;99.90;;;;;;4949367;28;20177;-77
2023/05/12 11:50:21;;;;;;;10.80;9.20;;;16.00;99.90;;;;;;4946694;28;20208;-71
2023/05/12 11:52:47;;;;;;;3.50;3.10;;;16.30;99.90;;;;;;4946298;28;20224;-79
2023/05/12 11:55:20;;;;;;;3.63;3.33;;;16.20;99.90;;;;;;4925542;29;20240;-71
2023/05/12 11:58:01;;;;;;;9.27;7.65;;;16.00;99.90;;;;;;4944289;29;20240;-73
2023/05/12 12:00:32;;;;;;;2.97;2.78;;;15.90;99.90;;;;;;4929324;28;20299;-65
2023/05/12 12:03:12;;;;;;;6.45;5.80;;;16.10;99.90;;;;;;4949957;29;20189;-71
2023/05/12 12:05:39;;;;;;;9.60;8.70;;;15.80;99.90;;;;;;4946356;29;20224;-79
2023/05/12 12:08:15;;;;;;;3.50;3.20;;;16.00;99.90;;;;;;4933857;29;20200;-78
2023/05/12 12:10:45;;;;;;;4.35;3.85;;;16.20;99.90;;;;;;4928929;29;20268;-77
2023/05/12 12:13:12;;;;;;;3.95;3.65;;;16.30;99.90;;;;;;4949959;28;20263;-74
2023/05/12 12:15:37;;;;;;;3.10;2.90;;;16.40;99.90;;;;;;4943503;29;20197;-78
2023/05/12 12:18:03;;;;;;;3.57;3.27;;;16.60;99.90;;;;;;4936322;29;20189;-79
2023/05/12 12:20:29;;;;;;;3.77;3.47;;;17.00;99.90;;;;;;4926290;29;20299;-76
2023/05/12 12:22:55;;;;;;;6.05;3.13;;;17.70;99.90;;;;;;4932301;29;20276;-71
2023/05/12 12:25:21;;;;;;;3.27;3.07;;;17.80;99.90;;;;;;4947399;28;20300;-73
2023/05/12 12:27:47;;;;;;;3.88;3.58;;;18.10;99.90;;;;;;4948994;29;20650;-75
2023/05/12 12:30:15;;;;;;;5.00;4.40;;;18.10;99.90;;;;;;4948277;28;20204;-71
2023/05/12 12:32:42;;;;;;;4.22;3.92;;;18.30;99.90;;;;;;4950205;28;20251;-69
2023/05/12 12:35:08;;;;;;;5.20;4.70;;;18.10;99.90;;;;;;4945650;28;20277;-69
2023/05/12 12:37:34;;;;;;;6.00;5.27;;;18.20;99.90;;;;;;4945011;28;20272;-70
2023/05/12 12:40:06;;;;;;;4.07;3.77;;;18.50;99.90;;;;;;4949649;28;20296;-70